Flag for Germany

Past Weather in 49°52'47.9"N, 8°38'29.1"E, Germany — Yesterday and Last 2 Weeks

Currently: 39 °F. Sunny. (Weather station: Frankfurt-M-Flughafen Airport, Germany). See more current weather

Past Weather in 49°52'47.9"N, 8°38'29.1"E — Graph

°F

49°52'47.9"N, 8°38'29.1"E Temperature Yesterday

Maximum temperature yesterday: 66 °F (at 3:20 pm)
Minimum temperature yesterday: 34 °F (at 7:20 am)
Average temperature yesterday: 49 °F

High & Low Weather Summary for the Past Weeks

 TemperatureHumidityPressure
High66 °F (Feb 23, 3:50 pm)100% (Feb 16, 3:50 am)30.74 "Hg (Feb 16, 3:50 am)
Low16 °F (Feb 11, 7:20 am)37% (Feb 25, 1:50 pm)29.83 "Hg (Feb 18, 6:50 pm)
Average39 °F75%30.30 "Hg
* Reported Feb 11 7:20 am — Feb 26 7:20 am, 49°52'47.9"N, 8°38'29.1"E. Weather by CustomWeather, © 2021

Note: Actual official high and low records may vary slightly from our data, if they occured in-between our weather recording intervals... More about our weather records

49°52'47.9"N, 8°38'29.1"E Weather History for the Previous 24 Hours

Scroll right to see more
 ConditionsComfort  
Time TempWeatherWind HumidityBarometerVisibility
7:20 am
Fri, Feb 26
39 °FSunny.1 mph87%30.39 "Hg10 mi
6:50 am37 °FClear.2 mph87%30.39 "Hg10 mi
6:20 am37 °FClear.5 mph87%30.39 "Hg10 mi
5:50 am37 °FClear.2 mph87%30.36 "Hg10 mi
5:20 am37 °FClear.6 mph87%30.36 "Hg10 mi
4:50 am36 °FClear.7 mph93%30.36 "Hg10 mi
4:20 am37 °FPassing clouds.3 mph87%30.36 "HgN/A
3:50 am39 °FClear.5 mph87%30.36 "Hg10 mi
3:20 am37 °FClear.3 mph93%30.36 "Hg10 mi
2:50 am37 °FClear.6 mph87%30.36 "Hg10 mi
2:20 am37 °FClear.5 mph87%30.36 "Hg10 mi
1:50 am37 °FPassing clouds.5 mph87%30.36 "HgN/A
1:20 am37 °FClear.2 mph93%30.36 "Hg10 mi
12:50 am39 °FClear.1 mph87%30.36 "Hg10 mi
12:20 am39 °FClear.1 mph87%30.36 "Hg10 mi
11:50 pm
Thu, Feb 25
39 °FClear.2 mph87%30.36 "Hg10 mi
11:20 pm41 °FClear.2 mph87%30.36 "Hg10 mi
10:50 pm43 °FClear.3 mph81%30.36 "Hg10 mi
10:20 pm43 °FClear.2 mph81%30.36 "Hg10 mi
9:50 pm45 °FClear.2 mph76%30.33 "Hg10 mi
9:20 pm45 °FClear.1 mph76%30.33 "Hg10 mi
8:50 pm46 °FClear.2 mph71%30.33 "Hg10 mi
8:20 pm46 °FClear.1 mph76%30.36 "Hg10 mi
7:50 pm48 °FClear.2 mph71%30.33 "Hg10 mi
7:20 pm50 °FClear.1 mph67%30.33 "Hg10 mi
6:50 pm54 °FClear.3 mph58%30.33 "Hg10 mi
6:20 pm55 °FClear.2 mph55%30.33 "Hg10 mi
5:50 pm59 °FSunny.5 mph48%30.33 "Hg10 mi
4:50 pm66 °FPassing clouds.6 mph37%30.33 "HgN/A
4:20 pm66 °FPassing clouds.5 mph37%30.33 "HgN/A
3:50 pm66 °FPassing clouds.7 mph37%30.33 "HgN/A
3:20 pm66 °FPassing clouds.7 mph37%30.33 "HgN/A
2:50 pm64 °FSunny.7 mph37%30.33 "Hg10 mi
2:20 pm64 °FPassing clouds.8 mph37%30.33 "HgN/A
1:50 pm64 °FPassing clouds.6 mph37%30.36 "HgN/A
1:20 pm63 °FPassing clouds.5 mph39%30.36 "HgN/A
12:50 pm63 °FPassing clouds.6 mph42%30.36 "HgN/A
12:20 pm61 °FPassing clouds.5 mph45%30.39 "HgN/A
11:50 am59 °FSunny.6 mph48%30.39 "Hg10 mi
11:20 am57 °FSunny.7 mph59%30.39 "Hg10 mi
10:50 am55 °FSunny.7 mph63%30.39 "Hg10 mi
10:20 am52 °FPassing clouds.6 mph72%30.39 "HgN/A
9:50 am50 °FPassing clouds.3 mph82%30.39 "HgN/A
9:20 am46 °FSunny.2 mph87%30.39 "Hg10 mi
8:50 am41 °FSunny.1 mph93%30.39 "Hg10 mi
8:20 am37 °FSunny.1 mph93%30.39 "Hg10 mi
Weather by CustomWeather, © 2021

See weather overview